Bookmark and Share
Track history (hours):
 

Hoegh Delhi

Last reported at 2014-Apr-19 23:14 UTC. Time now 2014-Apr-21 15:06 UTC.
Position S 26°27' E 153°21'.

Length 200 m; draft 7.2 m.

Type: Cargo ship. MMSI: 258718000.

NotesDate/timePositionNaut miles runAvg speedWind from/ knotsBaromVisibWave heightAir tempDewpointWater temp
2014-Apr-19 23:14S 26°27' E 153°21'1217.0
2014-Apr-19 22:34S 26°38' E 153°15'1514.9
2014-Apr-19 21:34S 26°51' E 153°09'1818.5
2014-Apr-19 20:34S 27°07' E 153°20'1616.0
2014-Apr-19 19:33S 27°21' E 153°11'2 2.3
2014-Apr-19 18:33S 27°23' E 153°10'0 0.0
2014-Apr-19 17:33S 27°23' E 153°10'0 0.0
2014-Apr-19 16:33S 27°23' E 153°10'0 0.0
2014-Apr-19 15:33S 27°23' E 153°10'0 0.0
2014-Apr-19 14:33S 27°23' E 153°10'0 0.0
2014-Apr-19 13:33S 27°23' E 153°10'0 0.0
2014-Apr-19 12:33S 27°23' E 153°10'0 0.0
2014-Apr-19 11:33S 27°23' E 153°10'0 0.0
2014-Apr-19 10:33S 27°23' E 153°10'0 0.0
2014-Apr-19 09:33S 27°23' E 153°10'4 4.2
2014-Apr-19 08:33S 27°19' E 153°12'1514.8
2014-Apr-19 07:34S 27°06' E 153°19'1716.8
2014-Apr-19 06:34S 26°51' E 153°09'1010.2
2014-Apr-19 05:33S 26°43' E 153°16'10 9.5
2014-Apr-19 04:33S 26°44' E 153°26'9 9.3
2014-Apr-19 03:33S 26°51' E 153°33'1110.5
2014-Apr-19 02:33S 26°60' E 153°40'1110.6
2014-Apr-19 01:33S 27°10' E 153°43'1211.2
2014-Apr-19 00:28S 27°22' E 153°44'1011.4
2014-Apr-18 23:33S 27°32' E 153°46'1111.5
2014-Apr-18 22:33S 27°44' E 153°47'1313.1
2014-Apr-18 21:34S 27°57' E 153°49'1313.1
2014-Apr-18 20:33S 28°10' E 153°50'1312.6
2014-Apr-18 19:33S 28°22' E 153°52'26112.4
2014-Apr-17 22:33S 32°36' E 152°40'1413.2
2014-Apr-17 21:27S 32°48' E 152°30'1314.1
2014-Apr-17 20:33S 32°59' E 152°21'1514.6
2014-Apr-17 19:33S 33°11' E 152°12'260 8.3
2014-Apr-16 12:04S 37°13' E 150°17'916.0
2014-Apr-16 11:31S 37°22' E 150°14'1616.1
2014-Apr-16 10:33S 37°36' E 150°08'1615.6
2014-Apr-16 09:33S 37°46' E 149°52'1715.7
2014-Apr-16 08:29S 37°56' E 149°35'6516.0
2014-Apr-16 04:28S 38°36' E 148°31'1415.9
2014-Apr-16 03:33S 38°45' E 148°17'5116.1
2014-Apr-16 00:22S 39°03' E 147°15'1914.9
2014-Apr-15 23:04S 39°11' E 146°51'815.4
2014-Apr-15 22:33S 39°13' E 146°42'1615.5
2014-Apr-15 21:33S 39°16' E 146°22'1515.3
2014-Apr-15 20:33S 39°12' E 146°03'1616.1
2014-Apr-15 19:33S 39°03' E 145°46'63 9.0
2014-Apr-15 12:34S 38°14' E 144°55'1817.5
2014-Apr-15 11:34S 37°57' E 144°56'6 6.1
2014-Apr-15 10:34S 37°51' E 144°55'0 0.0
2014-Apr-15 09:34S 37°51' E 144°55'0 0.0
2014-Apr-15 08:34S 37°51' E 144°55'0 0.0
2014-Apr-15 07:34S 37°51' E 144°55'0 0.0
2014-Apr-15 06:34S 37°51' E 144°55'2 0.7
2014-Apr-15 03:34S 37°53' E 144°56'1515.0
2014-Apr-15 02:34S 38°08' E 144°55'12012.0
2014-Apr-14 16:32S 38°49' E 142°31'1414.0
2014-Apr-14 15:33S 38°47' E 142°14'1414.0
2014-Apr-14 14:34S 38°45' E 141°56'1413.9
2014-Apr-14 13:33S 38°42' E 141°38'2914.4
2014-Apr-14 11:32S 38°38' E 141°02'1414.2
2014-Apr-14 10:33S 38°35' E 140°44'  

Dump ship's entire track history

sailing weather and tide predictions

Hoegh Delhi — LAJH6 — position and weather